sensor_id;sensor_type;location;lat;lon;timestamp;pressure;altitude;pressure_sealevel;temperature;humidity
3206;BME280;1615;53.602;11.418;2023-07-31T00:02:16;100329.81;;;15.10;100.00
3206;BME280;1615;53.602;11.418;2023-07-31T00:04:42;100409.69;;;15.73;100.00
3206;BME280;1615;53.602;11.418;2023-07-31T00:07:07;100463.66;;;16.20;100.00
3206;BME280;1615;53.602;11.418;2023-07-31T00:09:33;100387.81;;;15.68;100.00
3206;BME280;1615;53.602;11.418;2023-07-31T00:11:58;100373.81;;;15.64;100.00
3206;BME280;1615;53.602;11.418;2023-07-31T00:14:24;100491.00;;;16.42;100.00
3206;BME280;1615;53.602;11.418;2023-07-31T00:16:49;100489.19;;;16.46;100.00
3206;BME280;1615;53.602;11.418;2023-07-31T00:19:14;100463.03;;;16.35;100.00
3206;BME280;1615;53.602;11.418;2023-07-31T00:21:40;100354.16;;;15.66;100.00
3206;BME280;1615;53.602;11.418;2023-07-31T00:24:05;100464.22;;;16.13;100.00
3206;BME280;1615;53.602;11.418;2023-07-31T00:26:30;100373.88;;;15.56;100.00
3206;BME280;1615;53.602;11.418;2023-07-31T00:28:55;100401.88;;;15.75;100.00
3206;BME280;1615;53.602;11.418;2023-07-31T00:31:21;100481.19;;;16.24;100.00
3206;BME280;1615;53.602;11.418;2023-07-31T00:33:46;100453.16;;;16.13;100.00
3206;BME280;1615;53.602;11.418;2023-07-31T00:36:11;100323.97;;;15.32;100.00
3206;BME280;1615;53.602;11.418;2023-07-31T00:38:37;100414.03;;;15.82;100.00
3206;BME280;1615;53.602;11.418;2023-07-31T00:41:02;100433.91;;;15.96;100.00
3206;BME280;1615;53.602;11.418;2023-07-31T00:43:27;100347.78;;;15.45;100.00
3206;BME280;1615;53.602;11.418;2023-07-31T00:45:53;100437.09;;;16.07;100.00
3206;BME280;1615;53.602;11.418;2023-07-31T00:48:18;100385.16;;;15.71;100.00
3206;BME280;1615;53.602;11.418;2023-07-31T00:50:43;100318.94;;;15.34;100.00
3206;BME280;1615;53.602;11.418;2023-07-31T00:53:09;100407.75;;;15.94;100.00
3206;BME280;1615;53.602;11.418;2023-07-31T00:55:34;100440.94;;;16.14;100.00
3206;BME280;1615;53.602;11.418;2023-07-31T00:58:00;100459.72;;;16.21;100.00
3206;BME280;1615;53.602;11.418;2023-07-31T01:00:25;100343.69;;;15.51;100.00
3206;BME280;1615;53.602;11.418;2023-07-31T01:02:51;100465.56;;;16.28;100.00
3206;BME280;1615;53.602;11.418;2023-07-31T01:05:19;100379.38;;;15.85;100.00
3206;BME280;1615;53.602;11.418;2023-07-31T01:08:08;100292.38;;;15.21;100.00
3206;BME280;1615;53.602;11.418;2023-07-31T01:10:48;100365.47;;;15.73;100.00
3206;BME280;1615;53.602;11.418;2023-07-31T01:13:15;100311.50;;;15.34;100.00
3206;BME280;1615;53.602;11.418;2023-07-31T01:15:40;100407.53;;;15.99;100.00
3206;BME280;1615;53.602;11.418;2023-07-31T01:18:05;100408.56;;;15.94;100.00
3206;BME280;1615;53.602;11.418;2023-07-31T01:20:31;100340.66;;;15.44;100.00
3206;BME280;1615;53.602;11.418;2023-07-31T01:23:30;100428.09;;;16.10;100.00
3206;BME280;1615;53.602;11.418;2023-07-31T01:26:16;100336.69;;;15.53;100.00
3206;BME280;1615;53.602;11.418;2023-07-31T01:31:23;100424.22;;;16.11;100.00
3206;BME280;1615;53.602;11.418;2023-07-31T01:33:50;100431.28;;;16.20;100.00
3206;BME280;1615;53.602;11.418;2023-07-31T01:36:18;100355.22;;;15.73;100.00
3206;BME280;1615;53.602;11.418;2023-07-31T01:38:43;100415.28;;;16.26;100.00
3206;BME280;1615;53.602;11.418;2023-07-31T01:41:08;100338.06;;;15.68;100.00
3206;BME280;1615;53.602;11.418;2023-07-31T01:43:33;100390.00;;;16.15;100.00
3206;BME280;1615;53.602;11.418;2023-07-31T01:45:59;100359.41;;;16.00;100.00
3206;BME280;1615;53.602;11.418;2023-07-31T01:48:24;100357.75;;;15.99;100.00
3206;BME280;1615;53.602;11.418;2023-07-31T01:50:49;100383.22;;;16.25;100.00
3206;BME280;1615;53.602;11.418;2023-07-31T01:53:15;100381.75;;;16.27;100.00
3206;BME280;1615;53.602;11.418;2023-07-31T01:55:40;100334.31;;;15.84;100.00
3206;BME280;1615;53.602;11.418;2023-07-31T01:58:06;100398.25;;;16.36;100.00
3206;BME280;1615;53.602;11.418;2023-07-31T02:00:31;100392.88;;;16.39;100.00
3206;BME280;1615;53.602;11.418;2023-07-31T02:02:56;100322.84;;;15.94;100.00
3206;BME280;1615;53.602;11.418;2023-07-31T02:05:21;100328.50;;;15.98;100.00
3206;BME280;1615;53.602;11.418;2023-07-31T02:07:47;100237.91;;;15.50;100.00
3206;BME280;1615;53.602;11.418;2023-07-31T02:10:12;100268.47;;;15.66;100.00
3206;BME280;1615;53.602;11.418;2023-07-31T02:12:38;100279.72;;;15.81;100.00
3206;BME280;1615;53.602;11.418;2023-07-31T02:15:03;100411.63;;;16.34;100.00
3206;BME280;1615;53.602;11.418;2023-07-31T02:17:29;100374.78;;;16.42;100.00
3206;BME280;1615;53.602;11.418;2023-07-31T02:19:54;100354.31;;;16.34;100.00
3206;BME280;1615;53.602;11.418;2023-07-31T02:22:20;100367.75;;;16.44;100.00
3206;BME280;1615;53.602;11.418;2023-07-31T02:24:45;100268.31;;;15.83;100.00
3206;BME280;1615;53.602;11.418;2023-07-31T02:27:10;100381.66;;;16.56;100.00
3206;BME280;1615;53.602;11.418;2023-07-31T02:29:35;100252.53;;;15.83;100.00
3206;BME280;1615;53.602;11.418;2023-07-31T02:32:01;100348.53;;;16.48;100.00
3206;BME280;1615;53.602;11.418;2023-07-31T02:34:26;100272.88;;;15.99;100.00
3206;BME280;1615;53.602;11.418;2023-07-31T02:36:51;100333.13;;;16.38;100.00
3206;BME280;1615;53.602;11.418;2023-07-31T02:39:17;100243.69;;;15.90;100.00
3206;BME280;1615;53.602;11.418;2023-07-31T02:41:42;100255.44;;;15.87;100.00
3206;BME280;1615;53.602;11.418;2023-07-31T02:44:07;100289.66;;;16.27;100.00
3206;BME280;1615;53.602;11.418;2023-07-31T02:46:32;100333.91;;;16.59;100.00
3206;BME280;1615;53.602;11.418;2023-07-31T02:48:58;100280.09;;;16.36;100.00
3206;BME280;1615;53.602;11.418;2023-07-31T02:51:23;100321.72;;;16.72;100.00
3206;BME280;1615;53.602;11.418;2023-07-31T02:53:48;100333.56;;;16.85;100.00
3206;BME280;1615;53.602;11.418;2023-07-31T02:56:14;100336.81;;;16.87;100.00
3206;BME280;1615;53.602;11.418;2023-07-31T02:58:40;100185.66;;;16.02;100.00
3206;BME280;1615;53.602;11.418;2023-07-31T03:01:05;100356.44;;;17.06;100.00
3206;BME280;1615;53.602;11.418;2023-07-31T03:03:30;100337.97;;;16.98;100.00
3206;BME280;1615;53.602;11.418;2023-07-31T03:05:56;100326.56;;;16.99;100.00
3206;BME280;1615;53.602;11.418;2023-07-31T03:08:21;100329.22;;;17.08;100.00
3206;BME280;1615;53.602;11.418;2023-07-31T03:10:46;100343.72;;;17.17;100.00
3206;BME280;1615;53.602;11.418;2023-07-31T03:13:11;100327.91;;;17.17;100.00
3206;BME280;1615;53.602;11.418;2023-07-31T03:15:37;100047.84;;;15.44;100.00
3206;BME280;1615;53.602;11.418;2023-07-31T03:18:02;100184.19;;;16.28;100.00
3206;BME280;1615;53.602;11.418;2023-07-31T03:20:27;100349.28;;;17.05;100.00
3206;BME280;1615;53.602;11.418;2023-07-31T03:22:53;100343.75;;;17.29;100.00
3206;BME280;1615;53.602;11.418;2023-07-31T03:25:18;100328.38;;;17.31;100.00
3206;BME280;1615;53.602;11.418;2023-07-31T03:27:43;100263.78;;;16.91;100.00
3206;BME280;1615;53.602;11.418;2023-07-31T03:30:09;100293.66;;;17.10;100.00
3206;BME280;1615;53.602;11.418;2023-07-31T03:32:34;100202.09;;;16.55;100.00
3206;BME280;1615;53.602;11.418;2023-07-31T03:34:59;100307.03;;;17.20;100.00
3206;BME280;1615;53.602;11.418;2023-07-31T03:37:25;100245.91;;;16.89;100.00
3206;BME280;1615;53.602;11.418;2023-07-31T03:39:50;100048.78;;;15.60;100.00
3206;BME280;1615;53.602;11.418;2023-07-31T03:42:15;100304.25;;;17.20;100.00
3206;BME280;1615;53.602;11.418;2023-07-31T03:44:41;100291.47;;;17.15;100.00
3206;BME280;1615;53.602;11.418;2023-07-31T03:47:06;100312.66;;;17.35;100.00
3206;BME280;1615;53.602;11.418;2023-07-31T03:49:31;100310.59;;;17.44;100.00
3206;BME280;1615;53.602;11.418;2023-07-31T03:51:56;100320.84;;;17.56;100.00
3206;BME280;1615;53.602;11.418;2023-07-31T03:54:22;100212.53;;;16.97;100.00
3206;BME280;1615;53.602;11.418;2023-07-31T03:56:47;100317.03;;;17.60;100.00
3206;BME280;1615;53.602;11.418;2023-07-31T03:59:12;100315.28;;;17.68;100.00
3206;BME280;1615;53.602;11.418;2023-07-31T04:01:38;100291.78;;;17.50;100.00
3206;BME280;1615;53.602;11.418;2023-07-31T04:04:03;100318.28;;;17.63;100.00
3206;BME280;1615;53.602;11.418;2023-07-31T04:06:28;99726.66;;;13.67;100.00
3206;BME280;1615;53.602;11.418;2023-07-31T04:08:54;100320.63;;;17.61;100.00
3206;BME280;1615;53.602;11.418;2023-07-31T04:11:19;100248.38;;;17.30;100.00
3206;BME280;1615;53.602;11.418;2023-07-31T04:13:44;99805.91;;;14.14;100.00
3206;BME280;1615;53.602;11.418;2023-07-31T04:16:10;99723.22;;;13.70;100.00
3206;BME280;1615;53.602;11.418;2023-07-31T04:18:35;99723.22;;;13.70;100.00
3206;BME280;1615;53.602;11.418;2023-07-31T04:21:00;99797.72;;;14.06;100.00
3206;BME280;1615;53.602;11.418;2023-07-31T04:23:27;99801.38;;;13.98;100.00
3206;BME280;1615;53.602;11.418;2023-07-31T04:25:52;99731.81;;;14.13;100.00
3206;BME280;1615;53.602;11.418;2023-07-31T04:28:18;100261.72;;;17.52;100.00
3206;BME280;1615;53.602;11.418;2023-07-31T04:30:43;99779.00;;;14.32;100.00
3206;BME280;1615;53.602;11.418;2023-07-31T04:33:08;100024.84;;;15.64;100.00
3206;BME280;1615;53.602;11.418;2023-07-31T04:35:34;100044.25;;;16.27;100.00
3206;BME280;1615;53.602;11.418;2023-07-31T04:37:59;100061.22;;;16.38;100.00
3206;BME280;1615;53.602;11.418;2023-07-31T04:40:24;100205.84;;;17.38;100.00
3206;BME280;1615;53.602;11.418;2023-07-31T04:42:49;99837.97;;;14.63;100.00
3206;BME280;1615;53.602;11.418;2023-07-31T04:45:15;99747.78;;;14.40;100.00
3206;BME280;1615;53.602;11.418;2023-07-31T04:47:41;100385.44;;;17.96;100.00
3206;BME280;1615;53.602;11.418;2023-07-31T04:50:06;99778.06;;;14.28;100.00
3206;BME280;1615;53.602;11.418;2023-07-31T04:52:32;99998.53;;;16.18;100.00
3206;BME280;1615;53.602;11.418;2023-07-31T04:54:57;99992.44;;;16.24;100.00
3206;BME280;1615;53.602;11.418;2023-07-31T04:57:22;99705.47;;;14.48;100.00
3206;BME280;1615;53.602;11.418;2023-07-31T04:59:47;100278.56;;;18.14;100.00
3206;BME280;1615;53.602;11.418;2023-07-31T05:02:13;99756.97;;;14.80;100.00
3206;BME280;1615;53.602;11.418;2023-07-31T05:04:38;100265.56;;;18.02;100.00
3206;BME280;1615;53.602;11.418;2023-07-31T05:07:07;100158.19;;;17.32;100.00
3206;BME280;1615;53.602;11.418;2023-07-31T05:09:32;100245.13;;;17.95;100.00
3206;BME280;1615;53.602;11.418;2023-07-31T05:11:57;100227.06;;;17.85;100.00
3206;BME280;1615;53.602;11.418;2023-07-31T05:14:23;100235.66;;;17.96;100.00
3206;BME280;1615;53.602;11.418;2023-07-31T05:16:48;100248.31;;;18.09;100.00
3206;BME280;1615;53.602;11.418;2023-07-31T05:19:13;100124.84;;;17.29;100.00
3206;BME280;1615;53.602;11.418;2023-07-31T05:21:39;100237.53;;;17.92;100.00
3206;BME280;1615;53.602;11.418;2023-07-31T05:24:04;100286.81;;;18.26;100.00
3206;BME280;1615;53.602;11.418;2023-07-31T05:26:30;100261.91;;;18.14;100.00
3206;BME280;1615;53.602;11.418;2023-07-31T05:28:55;100257.72;;;18.20;100.00
3206;BME280;1615;53.602;11.418;2023-07-31T05:31:20;100253.22;;;18.15;100.00
3206;BME280;1615;53.602;11.418;2023-07-31T05:33:47;100225.91;;;18.02;100.00
3206;BME280;1615;53.602;11.418;2023-07-31T05:36:12;100250.28;;;18.24;100.00
3206;BME280;1615;53.602;11.418;2023-07-31T05:38:38;100217.56;;;18.02;100.00
3206;BME280;1615;53.602;11.418;2023-07-31T05:41:03;100266.66;;;18.29;100.00
3206;BME280;1615;53.602;11.418;2023-07-31T05:43:29;100240.59;;;18.18;100.00
3206;BME280;1615;53.602;11.418;2023-07-31T05:45:54;100224.22;;;18.13;100.00
3206;BME280;1615;53.602;11.418;2023-07-31T05:48:19;100250.94;;;18.33;100.00
3206;BME280;1615;53.602;11.418;2023-07-31T05:50:45;100176.31;;;17.85;100.00
3206;BME280;1615;53.602;11.418;2023-07-31T05:53:10;100196.81;;;17.96;100.00
3206;BME280;1615;53.602;11.418;2023-07-31T05:55:35;100216.28;;;18.11;100.00
3206;BME280;1615;53.602;11.418;2023-07-31T05:58:01;100112.31;;;17.47;100.00
3206;BME280;1615;53.602;11.418;2023-07-31T06:00:26;100187.16;;;17.90;100.00
3206;BME280;1615;53.602;11.418;2023-07-31T06:02:52;100266.81;;;18.48;100.00
3206;BME280;1615;53.602;11.418;2023-07-31T06:05:18;100235.47;;;18.32;100.00
3206;BME280;1615;53.602;11.418;2023-07-31T06:07:43;100261.78;;;18.38;100.00
3206;BME280;1615;53.602;11.418;2023-07-31T06:10:09;99920.75;;;16.19;100.00
3206;BME280;1615;53.602;11.418;2023-07-31T06:12:35;100205.53;;;18.10;100.00
3206;BME280;1615;53.602;11.418;2023-07-31T06:15:02;100271.38;;;18.56;100.00
3206;BME280;1615;53.602;11.418;2023-07-31T06:17:28;100182.88;;;18.08;100.00
3206;BME280;1615;53.602;11.418;2023-07-31T06:19:53;100167.81;;;17.93;100.00
3206;BME280;1615;53.602;11.418;2023-07-31T06:22:18;100267.25;;;18.65;100.00
3206;BME280;1615;53.602;11.418;2023-07-31T06:24:44;100188.88;;;18.25;100.00
3206;BME280;1615;53.602;11.418;2023-07-31T06:27:10;100194.97;;;18.31;100.00
3206;BME280;1615;53.602;11.418;2023-07-31T06:29:35;100254.09;;;18.78;100.00
3206;BME280;1615;53.602;11.418;2023-07-31T06:32:01;100254.41;;;18.92;100.00
3206;BME280;1615;53.602;11.418;2023-07-31T06:34:26;100200.63;;;18.65;100.00
3206;BME280;1615;53.602;11.418;2023-07-31T06:36:51;100209.97;;;18.92;100.00
3206;BME280;1615;53.602;11.418;2023-07-31T06:39:16;100143.69;;;18.56;100.00
3206;BME280;1615;53.602;11.418;2023-07-31T06:41:44;100196.88;;;18.92;100.00
3206;BME280;1615;53.602;11.418;2023-07-31T06:44:09;100230.53;;;19.22;100.00
3206;BME280;1615;53.602;11.418;2023-07-31T06:46:35;100086.38;;;18.48;100.00
3206;BME280;1615;53.602;11.418;2023-07-31T06:49:00;100208.59;;;19.36;100.00
3206;BME280;1615;53.602;11.418;2023-07-31T06:51:25;100133.00;;;18.92;100.00
3206;BME280;1615;53.602;11.418;2023-07-31T06:53:51;100102.78;;;18.91;100.00
3206;BME280;1615;53.602;11.418;2023-07-31T06:56:16;100130.72;;;18.98;100.00
3206;BME280;1615;53.602;11.418;2023-07-31T06:58:41;100211.81;;;19.38;100.00
3206;BME280;1615;53.602;11.418;2023-07-31T07:01:06;100051.38;;;18.62;100.00
3206;BME280;1615;53.602;11.418;2023-07-31T07:03:32;100150.28;;;19.39;100.00
3206;BME280;1615;53.602;11.418;2023-07-31T07:05:57;100194.22;;;19.72;100.00
3206;BME280;1615;53.602;11.418;2023-07-31T07:08:24;100194.22;;;19.72;100.00
3206;BME280;1615;53.602;11.418;2023-07-31T07:10:49;100180.84;;;19.58;100.00
3206;BME280;1615;53.602;11.418;2023-07-31T07:13:14;100097.59;;;18.89;100.00
3206;BME280;1615;53.602;11.418;2023-07-31T07:15:40;100161.53;;;19.27;100.00
3206;BME280;1615;53.602;11.418;2023-07-31T07:18:05;100203.38;;;19.53;100.00
3206;BME280;1615;53.602;11.418;2023-07-31T07:20:30;100203.25;;;19.46;100.00
3206;BME280;1615;53.602;11.418;2023-07-31T07:22:56;100228.94;;;19.59;100.00
3206;BME280;1615;53.602;11.418;2023-07-31T07:25:21;100171.25;;;19.18;100.00
3206;BME280;1615;53.602;11.418;2023-07-31T07:27:46;100150.03;;;19.10;100.00
3206;BME280;1615;53.602;11.418;2023-07-31T07:30:12;100211.38;;;19.55;100.00
3206;BME280;1615;53.602;11.418;2023-07-31T07:32:37;100209.91;;;19.61;100.00
3206;BME280;1615;53.602;11.418;2023-07-31T07:35:03;100157.81;;;19.39;100.00
3206;BME280;1615;53.602;11.418;2023-07-31T07:37:28;100186.94;;;19.64;100.00
3206;BME280;1615;53.602;11.418;2023-07-31T07:39:53;100210.09;;;19.90;100.00
3206;BME280;1615;53.602;11.418;2023-07-31T07:42:19;100193.75;;;19.89;100.00
3206;BME280;1615;53.602;11.418;2023-07-31T07:44:44;100094.03;;;19.27;100.00
3206;BME280;1615;53.602;11.418;2023-07-31T07:47:09;100147.84;;;19.57;100.00
3206;BME280;1615;53.602;11.418;2023-07-31T07:49:35;100184.97;;;19.87;100.00
3206;BME280;1615;53.602;11.418;2023-07-31T07:52:00;100212.69;;;20.02;100.00
3206;BME280;1615;53.602;11.418;2023-07-31T07:54:26;100172.19;;;19.82;100.00
3206;BME280;1615;53.602;11.418;2023-07-31T07:56:51;100172.84;;;20.17;100.00
3206;BME280;1615;53.602;11.418;2023-07-31T07:59:17;100136.66;;;19.95;100.00
3206;BME280;1615;53.602;11.418;2023-07-31T08:01:42;100180.84;;;20.19;100.00
3206;BME280;1615;53.602;11.418;2023-07-31T08:04:08;100126.97;;;19.89;100.00
3206;BME280;1615;53.602;11.418;2023-07-31T08:06:33;100181.41;;;20.28;100.00
3206;BME280;1615;53.602;11.418;2023-07-31T08:08:59;99973.09;;;18.95;100.00
3206;BME280;1615;53.602;11.418;2023-07-31T08:11:24;100157.75;;;20.18;100.00
3206;BME280;1615;53.602;11.418;2023-07-31T08:13:50;100101.56;;;19.90;100.00
3206;BME280;1615;53.602;11.418;2023-07-31T08:16:15;100206.56;;;20.57;100.00
3206;BME280;1615;53.602;11.418;2023-07-31T08:18:40;100137.06;;;20.16;100.00
3206;BME280;1615;53.602;11.418;2023-07-31T08:21:07;100163.09;;;20.27;100.00
3206;BME280;1615;53.602;11.418;2023-07-31T08:23:32;100118.47;;;20.01;100.00
3206;BME280;1615;53.602;11.418;2023-07-31T08:25:59;100220.03;;;20.55;100.00
3206;BME280;1615;53.602;11.418;2023-07-31T08:28:25;100212.00;;;20.50;100.00
3206;BME280;1615;53.602;11.418;2023-07-31T08:30:50;100190.94;;;20.27;100.00
3206;BME280;1615;53.602;11.418;2023-07-31T08:33:16;100149.03;;;19.97;100.00
3206;BME280;1615;53.602;11.418;2023-07-31T08:35:41;100178.59;;;20.28;100.00
3206;BME280;1615;53.602;11.418;2023-07-31T08:38:06;99946.34;;;18.87;100.00
3206;BME280;1615;53.602;11.418;2023-07-31T08:40:32;100142.41;;;20.28;100.00
3206;BME280;1615;53.602;11.418;2023-07-31T08:43:00;100194.38;;;20.69;100.00
3206;BME280;1615;53.602;11.418;2023-07-31T08:45:28;100136.41;;;20.52;100.00
3206;BME280;1615;53.602;11.418;2023-07-31T08:47:55;100190.13;;;21.01;100.00
3206;BME280;1615;53.602;11.418;2023-07-31T08:50:21;100188.72;;;21.14;100.00
3206;BME280;1615;53.602;11.418;2023-07-31T08:52:50;100164.69;;;21.06;100.00
3206;BME280;1615;53.602;11.418;2023-07-31T08:55:15;100153.56;;;21.06;100.00
3206;BME280;1615;53.602;11.418;2023-07-31T08:57:42;100146.13;;;21.17;100.00
3206;BME280;1615;53.602;11.418;2023-07-31T09:00:09;100146.06;;;21.43;100.00
3206;BME280;1615;53.602;11.418;2023-07-31T09:02:41;100120.59;;;21.44;100.00
3206;BME280;1615;53.602;11.418;2023-07-31T09:05:08;100113.63;;;21.28;100.00
3206;BME280;1615;53.602;11.418;2023-07-31T09:07:35;100130.06;;;21.69;100.00
3206;BME280;1615;53.602;11.418;2023-07-31T09:10:04;100089.75;;;21.67;100.00
3206;BME280;1615;53.602;11.418;2023-07-31T09:12:30;100096.69;;;21.47;100.00
3206;BME280;1615;53.602;11.418;2023-07-31T09:14:57;100069.78;;;21.65;100.00
3206;BME280;1615;53.602;11.418;2023-07-31T09:17:32;100149.78;;;22.34;100.00
3206;BME280;1615;53.602;11.418;2023-07-31T09:20:05;100109.41;;;22.21;100.00
3206;BME280;1615;53.602;11.418;2023-07-31T09:22:37;100145.69;;;22.64;100.00
3206;BME280;1615;53.602;11.418;2023-07-31T09:25:22;100128.97;;;22.75;100.00
3206;BME280;1615;53.602;11.418;2023-07-31T09:27:49;100139.44;;;22.85;100.00
3206;BME280;1615;53.602;11.418;2023-07-31T09:30:15;100144.19;;;22.81;100.00
3206;BME280;1615;53.602;11.418;2023-07-31T09:32:42;100122.47;;;22.57;100.00
3206;BME280;1615;53.602;11.418;2023-07-31T09:35:31;100137.03;;;22.90;100.00
3206;BME280;1615;53.602;11.418;2023-07-31T09:37:58;99951.44;;;21.66;100.00
3206;BME280;1615;53.602;11.418;2023-07-31T09:40:35;100040.63;;;21.99;100.00
3206;BME280;1615;53.602;11.418;2023-07-31T09:43:05;100126.44;;;22.52;100.00
3206;BME280;1615;53.602;11.418;2023-07-31T09:45:34;100128.75;;;22.43;100.00
3206;BME280;1615;53.602;11.418;2023-07-31T09:48:00;100128.97;;;22.24;100.00
3206;BME280;1615;53.602;11.418;2023-07-31T09:50:25;100058.72;;;21.72;100.00
3206;BME280;1615;53.602;11.418;2023-07-31T09:52:51;100105.38;;;21.75;100.00
3206;BME280;1615;53.602;11.418;2023-07-31T09:55:19;100025.25;;;20.99;100.00
3206;BME280;1615;53.602;11.418;2023-07-31T09:57:46;100121.63;;;21.66;100.00
3206;BME280;1615;53.602;11.418;2023-07-31T10:00:13;100016.47;;;20.97;100.00
3206;BME280;1615;53.602;11.418;2023-07-31T10:02:39;100089.34;;;21.32;100.00
3206;BME280;1615;53.602;11.418;2023-07-31T10:05:05;100081.22;;;21.53;100.00
3206;BME280;1615;53.602;11.418;2023-07-31T10:07:39;100093.31;;;21.67;100.00
3206;BME280;1615;53.602;11.418;2023-07-31T10:10:05;100036.84;;;21.37;100.00
3206;BME280;1615;53.602;11.418;2023-07-31T10:12:33;100052.91;;;21.51;100.00
3206;BME280;1615;53.602;11.418;2023-07-31T10:15:00;99982.59;;;20.95;100.00
3206;BME280;1615;53.602;11.418;2023-07-31T10:17:26;99865.03;;;20.13;100.00
3206;BME280;1615;53.602;11.418;2023-07-31T10:19:51;99965.38;;;20.86;100.00
3206;BME280;1615;53.602;11.418;2023-07-31T10:22:19;100068.88;;;21.54;100.00
3206;BME280;1615;53.602;11.418;2023-07-31T10:24:45;100089.06;;;21.73;100.00
3206;BME280;1615;53.602;11.418;2023-07-31T10:27:11;100060.81;;;21.45;100.00
3206;BME280;1615;53.602;11.418;2023-07-31T10:29:38;100073.53;;;21.43;100.00
3206;BME280;1615;53.602;11.418;2023-07-31T10:32:05;100069.63;;;21.47;100.00
3206;BME280;1615;53.602;11.418;2023-07-31T10:34:34;100040.81;;;21.03;100.00
3206;BME280;1615;53.602;11.418;2023-07-31T10:39:55;100018.50;;;21.00;100.00
3206;BME280;1615;53.602;11.418;2023-07-31T10:42:27;100069.19;;;21.09;100.00
3206;BME280;1615;53.602;11.418;2023-07-31T10:44:57;100041.03;;;20.88;100.00
3206;BME280;1615;53.602;11.418;2023-07-31T10:47:23;100035.25;;;20.74;100.00
3206;BME280;1615;53.602;11.418;2023-07-31T10:49:48;100066.53;;;20.90;100.00
3206;BME280;1615;53.602;11.418;2023-07-31T10:52:19;100043.16;;;20.68;100.00
3206;BME280;1615;53.602;11.418;2023-07-31T10:54:48;100004.16;;;20.39;100.00
3206;BME280;1615;53.602;11.418;2023-07-31T10:57:22;99992.41;;;20.23;100.00
3206;BME280;1615;53.602;11.418;2023-07-31T10:59:49;100059.88;;;20.68;100.00
3206;BME280;1615;53.602;11.418;2023-07-31T11:02:26;100059.06;;;20.68;100.00
3206;BME280;1615;53.602;11.418;2023-07-31T11:05:09;100043.00;;;20.58;100.00
3206;BME280;1615;53.602;11.418;2023-07-31T11:07:49;100034.97;;;20.53;100.00
3206;BME280;1615;53.602;11.418;2023-07-31T11:10:18;100029.06;;;20.58;100.00
3206;BME280;1615;53.602;11.418;2023-07-31T11:12:45;100043.53;;;20.67;100.00
3206;BME280;1615;53.602;11.418;2023-07-31T11:15:10;99934.63;;;19.90;100.00
3206;BME280;1615;53.602;11.418;2023-07-31T11:17:39;99935.34;;;19.84;100.00
3206;BME280;1615;53.602;11.418;2023-07-31T11:20:05;99994.22;;;20.38;100.00
3206;BME280;1615;53.602;11.418;2023-07-31T11:22:31;99921.22;;;19.96;100.00
3206;BME280;1615;53.602;11.418;2023-07-31T11:24:56;100072.84;;;20.87;100.00
3206;BME280;1615;53.602;11.418;2023-07-31T11:27:23;99979.53;;;20.74;100.00
3206;BME280;1615;53.602;11.418;2023-07-31T11:29:50;100013.66;;;21.30;100.00
3206;BME280;1615;53.602;11.418;2023-07-31T11:32:16;99963.19;;;21.02;100.00
3206;BME280;1615;53.602;11.418;2023-07-31T11:34:53;100033.44;;;21.58;100.00
3206;BME280;1615;53.602;11.418;2023-07-31T11:37:18;99974.16;;;21.24;100.00
3206;BME280;1615;53.602;11.418;2023-07-31T11:39:58;99995.09;;;21.48;100.00
3206;BME280;1615;53.602;11.418;2023-07-31T11:42:25;99989.59;;;21.55;100.00
3206;BME280;1615;53.602;11.418;2023-07-31T11:44:50;99874.75;;;20.99;100.00
3206;BME280;1615;53.602;11.418;2023-07-31T11:47:16;99989.41;;;21.77;100.00
3206;BME280;1615;53.602;11.418;2023-07-31T11:49:41;99936.50;;;21.44;100.00
3206;BME280;1615;53.602;11.418;2023-07-31T11:52:07;99943.91;;;21.26;100.00
3206;BME280;1615;53.602;11.418;2023-07-31T11:54:32;99958.72;;;21.34;100.00
3206;BME280;1615;53.602;11.418;2023-07-31T11:56:58;100016.56;;;21.84;100.00
3206;BME280;1615;53.602;11.418;2023-07-31T11:59:26;99997.41;;;21.79;100.00
3206;BME280;1615;53.602;11.418;2023-07-31T12:01:51;99965.31;;;21.59;100.00
3206;BME280;1615;53.602;11.418;2023-07-31T12:04:19;99930.56;;;21.49;100.00
3206;BME280;1615;53.602;11.418;2023-07-31T12:06:46;99962.34;;;21.85;100.00
3206;BME280;1615;53.602;11.418;2023-07-31T12:09:15;99836.56;;;21.03;100.00
3206;BME280;1615;53.602;11.418;2023-07-31T12:11:44;99972.97;;;22.23;100.00
3206;BME280;1615;53.602;11.418;2023-07-31T12:14:26;99980.22;;;22.31;100.00
3206;BME280;1615;53.602;11.418;2023-07-31T12:16:54;99894.44;;;21.67;100.00
3206;BME280;1615;53.602;11.418;2023-07-31T12:19:21;99869.41;;;21.27;100.00
3206;BME280;1615;53.602;11.418;2023-07-31T12:21:46;99984.06;;;22.09;100.00
3206;BME280;1615;53.602;11.418;2023-07-31T12:24:11;99887.63;;;21.61;100.00
3206;BME280;1615;53.602;11.418;2023-07-31T12:26:37;99987.28;;;22.14;100.00
3206;BME280;1615;53.602;11.418;2023-07-31T12:29:07;99974.41;;;21.99;100.00
3206;BME280;1615;53.602;11.418;2023-07-31T12:31:33;99895.75;;;21.33;100.00
3206;BME280;1615;53.602;11.418;2023-07-31T12:33:59;99941.44;;;21.65;100.00
3206;BME280;1615;53.602;11.418;2023-07-31T12:36:24;99905.44;;;21.46;100.00
3206;BME280;1615;53.602;11.418;2023-07-31T12:38:51;99982.41;;;22.01;100.00
3206;BME280;1615;53.602;11.418;2023-07-31T12:41:16;99718.41;;;20.24;100.00
3206;BME280;1615;53.602;11.418;2023-07-31T12:43:43;99926.16;;;21.45;100.00
3206;BME280;1615;53.602;11.418;2023-07-31T12:46:09;99896.16;;;21.31;100.00
3206;BME280;1615;53.602;11.418;2023-07-31T12:48:36;99890.94;;;21.26;100.00
3206;BME280;1615;53.602;11.418;2023-07-31T12:51:02;99977.78;;;21.68;100.00
3206;BME280;1615;53.602;11.418;2023-07-31T12:53:28;99936.66;;;21.18;100.00
3206;BME280;1615;53.602;11.418;2023-07-31T12:55:54;99977.50;;;21.40;100.00